sensor_id;sensor_type;location;lat;lon;timestamp;temperature;humidity
51305;HTU21D;37392;50.964;6.952;2024-01-06T00:01:45;7.46;110.11
51305;HTU21D;37392;50.964;6.952;2024-01-06T00:04:11;7.47;109.97
51305;HTU21D;37392;50.964;6.952;2024-01-06T00:06:36;7.50;109.63
51305;HTU21D;37392;50.964;6.952;2024-01-06T00:09:02;7.50;109.36
51305;HTU21D;37392;50.964;6.952;2024-01-06T00:11:27;7.50;109.39
51305;HTU21D;37392;50.964;6.952;2024-01-06T00:13:53;7.53;109.24
51305;HTU21D;37392;50.964;6.952;2024-01-06T00:16:19;7.49;109.34
51305;HTU21D;37392;50.964;6.952;2024-01-06T00:18:46;7.50;109.47
51305;HTU21D;37392;50.964;6.952;2024-01-06T00:21:12;7.49;109.68
51305;HTU21D;37392;50.964;6.952;2024-01-06T00:23:37;7.49;109.63
51305;HTU21D;37392;50.964;6.952;2024-01-06T00:26:03;7.50;109.62
51305;HTU21D;37392;50.964;6.952;2024-01-06T00:28:29;7.49;110.25
51305;HTU21D;37392;50.964;6.952;2024-01-06T00:30:55;7.47;111.97
51305;HTU21D;37392;50.964;6.952;2024-01-06T00:33:21;7.44;113.13
51305;HTU21D;37392;50.964;6.952;2024-01-06T00:35:46;7.37;113.67
51305;HTU21D;37392;50.964;6.952;2024-01-06T00:38:12;7.32;115.22
51305;HTU21D;37392;50.964;6.952;2024-01-06T00:40:38;7.27;116.03
51305;HTU21D;37392;50.964;6.952;2024-01-06T00:43:04;7.24;116.57
51305;HTU21D;37392;50.964;6.952;2024-01-06T00:45:30;7.18;117.89
51305;HTU21D;37392;50.964;6.952;2024-01-06T00:47:56;7.18;118.66
51305;HTU21D;37392;50.964;6.952;2024-01-06T00:50:21;7.14;-5.23
51305;HTU21D;37392;50.964;6.952;2024-01-06T00:52:47;7.09;-4.37
51305;HTU21D;37392;50.964;6.952;2024-01-06T00:55:12;7.09;-3.47
51305;HTU21D;37392;50.964;6.952;2024-01-06T00:57:38;6.97;-3.15
51305;HTU21D;37392;50.964;6.952;2024-01-06T01:00:05;7.01;-2.13
51305;HTU21D;37392;50.964;6.952;2024-01-06T01:02:31;6.99;-1.72
51305;HTU21D;37392;50.964;6.952;2024-01-06T01:04:57;6.98;-0.86
51305;HTU21D;37392;50.964;6.952;2024-01-06T01:07:23;6.96;-0.16
51305;HTU21D;37392;50.964;6.952;2024-01-06T01:09:49;6.95;0.45
51305;HTU21D;37392;50.964;6.952;2024-01-06T01:12:14;6.94;0.92
51305;HTU21D;37392;50.964;6.952;2024-01-06T01:14:40;6.95;1.60
51305;HTU21D;37392;50.964;6.952;2024-01-06T01:17:05;6.93;1.99
51305;HTU21D;37392;50.964;6.952;2024-01-06T01:19:31;6.94;2.46
51305;HTU21D;37392;50.964;6.952;2024-01-06T01:21:56;6.90;2.82
51305;HTU21D;37392;50.964;6.952;2024-01-06T01:24:22;6.88;2.87
51305;HTU21D;37392;50.964;6.952;2024-01-06T01:26:48;6.89;3.37
51305;HTU21D;37392;50.964;6.952;2024-01-06T01:29:14;6.86;3.73
51305;HTU21D;37392;50.964;6.952;2024-01-06T01:31:40;6.86;3.87
51305;HTU21D;37392;50.964;6.952;2024-01-06T01:34:06;6.86;3.93
51305;HTU21D;37392;50.964;6.952;2024-01-06T01:36:31;6.85;4.09
51305;HTU21D;37392;50.964;6.952;2024-01-06T01:38:57;6.83;3.89
51305;HTU21D;37392;50.964;6.952;2024-01-06T01:41:22;6.82;4.22
51305;HTU21D;37392;50.964;6.952;2024-01-06T01:43:48;6.83;4.47
51305;HTU21D;37392;50.964;6.952;2024-01-06T01:46:13;6.85;4.85
51305;HTU21D;37392;50.964;6.952;2024-01-06T01:48:39;6.87;4.78
51305;HTU21D;37392;50.964;6.952;2024-01-06T01:51:05;6.83;4.97
51305;HTU21D;37392;50.964;6.952;2024-01-06T01:53:32;6.86;5.00
51305;HTU21D;37392;50.964;6.952;2024-01-06T01:55:58;6.83;5.18
51305;HTU21D;37392;50.964;6.952;2024-01-06T01:58:23;6.83;5.11
51305;HTU21D;37392;50.964;6.952;2024-01-06T02:00:49;6.81;5.12
51305;HTU21D;37392;50.964;6.952;2024-01-06T02:03:16;6.79;5.22
51305;HTU21D;37392;50.964;6.952;2024-01-06T02:05:41;6.78;5.49
51305;HTU21D;37392;50.964;6.952;2024-01-06T02:08:07;6.78;5.57
51305;HTU21D;37392;50.964;6.952;2024-01-06T02:10:32;6.79;5.64
51305;HTU21D;37392;50.964;6.952;2024-01-06T02:13:07;6.74;5.90
51305;HTU21D;37392;50.964;6.952;2024-01-06T02:15:34;6.73;5.81
51305;HTU21D;37392;50.964;6.952;2024-01-06T02:17:59;6.75;5.74
51305;HTU21D;37392;50.964;6.952;2024-01-06T02:20:25;6.74;5.92
51305;HTU21D;37392;50.964;6.952;2024-01-06T02:22:52;6.73;5.98
51305;HTU21D;37392;50.964;6.952;2024-01-06T02:28:58;6.73;6.28
51305;HTU21D;37392;50.964;6.952;2024-01-06T02:31:23;6.79;6.38
51305;HTU21D;37392;50.964;6.952;2024-01-06T02:33:49;6.80;6.49
51305;HTU21D;37392;50.964;6.952;2024-01-06T02:36:14;6.81;6.42
51305;HTU21D;37392;50.964;6.952;2024-01-06T02:38:40;6.79;6.44
51305;HTU21D;37392;50.964;6.952;2024-01-06T02:41:05;6.76;6.47
51305;HTU21D;37392;50.964;6.952;2024-01-06T02:43:31;6.82;6.49
51305;HTU21D;37392;50.964;6.952;2024-01-06T02:45:56;6.78;6.47
51305;HTU21D;37392;50.964;6.952;2024-01-06T02:48:22;6.75;6.40
51305;HTU21D;37392;50.964;6.952;2024-01-06T02:50:47;6.74;6.54
51305;HTU21D;37392;50.964;6.952;2024-01-06T02:53:13;6.80;6.63
51305;HTU21D;37392;50.964;6.952;2024-01-06T02:55:39;6.78;6.60
51305;HTU21D;37392;50.964;6.952;2024-01-06T02:58:04;6.76;6.57
51305;HTU21D;37392;50.964;6.952;2024-01-06T03:00:30;6.75;6.64
51305;HTU21D;37392;50.964;6.952;2024-01-06T03:02:55;6.72;6.70
51305;HTU21D;37392;50.964;6.952;2024-01-06T03:05:21;6.74;6.80
51305;HTU21D;37392;50.964;6.952;2024-01-06T03:07:46;6.71;6.82
51305;HTU21D;37392;50.964;6.952;2024-01-06T03:10:12;6.70;6.84
51305;HTU21D;37392;50.964;6.952;2024-01-06T03:12:37;6.73;7.02
51305;HTU21D;37392;50.964;6.952;2024-01-06T03:15:03;6.79;7.15
51305;HTU21D;37392;50.964;6.952;2024-01-06T03:17:29;6.79;7.02
51305;HTU21D;37392;50.964;6.952;2024-01-06T03:19:54;6.82;7.08
51305;HTU21D;37392;50.964;6.952;2024-01-06T03:22:20;6.79;7.08
51305;HTU21D;37392;50.964;6.952;2024-01-06T03:24:45;6.82;7.24
51305;HTU21D;37392;50.964;6.952;2024-01-06T03:27:11;6.83;7.15
51305;HTU21D;37392;50.964;6.952;2024-01-06T03:29:37;6.84;7.08
51305;HTU21D;37392;50.964;6.952;2024-01-06T03:32:03;6.80;7.07
51305;HTU21D;37392;50.964;6.952;2024-01-06T03:34:29;6.83;7.16
51305;HTU21D;37392;50.964;6.952;2024-01-06T03:36:54;6.82;7.05
51305;HTU21D;37392;50.964;6.952;2024-01-06T03:39:20;6.83;7.05
51305;HTU21D;37392;50.964;6.952;2024-01-06T03:41:47;6.80;7.13
51305;HTU21D;37392;50.964;6.952;2024-01-06T03:44:13;6.76;7.19
51305;HTU21D;37392;50.964;6.952;2024-01-06T03:46:39;6.76;7.23
51305;HTU21D;37392;50.964;6.952;2024-01-06T03:49:04;6.74;7.28
51305;HTU21D;37392;50.964;6.952;2024-01-06T03:51:30;6.74;7.33
51305;HTU21D;37392;50.964;6.952;2024-01-06T03:53:55;6.74;7.44
51305;HTU21D;37392;50.964;6.952;2024-01-06T03:56:21;6.73;7.44
51305;HTU21D;37392;50.964;6.952;2024-01-06T03:58:46;6.73;7.56
51305;HTU21D;37392;50.964;6.952;2024-01-06T04:01:12;6.75;7.63
51305;HTU21D;37392;50.964;6.952;2024-01-06T04:03:38;6.76;7.53
51305;HTU21D;37392;50.964;6.952;2024-01-06T04:06:05;6.74;7.52
51305;HTU21D;37392;50.964;6.952;2024-01-06T04:08:31;6.73;7.54
51305;HTU21D;37392;50.964;6.952;2024-01-06T04:10:57;6.71;7.53
51305;HTU21D;37392;50.964;6.952;2024-01-06T04:13:22;6.68;7.56
51305;HTU21D;37392;50.964;6.952;2024-01-06T04:15:50;6.67;7.66
51305;HTU21D;37392;50.964;6.952;2024-01-06T04:18:16;6.66;7.77
51305;HTU21D;37392;50.964;6.952;2024-01-06T04:20:41;6.59;7.70
51305;HTU21D;37392;50.964;6.952;2024-01-06T04:23:07;6.65;7.74
51305;HTU21D;37392;50.964;6.952;2024-01-06T04:25:32;6.69;7.94
51305;HTU21D;37392;50.964;6.952;2024-01-06T04:27:58;6.70;7.89
51305;HTU21D;37392;50.964;6.952;2024-01-06T04:30:23;6.70;7.88
51305;HTU21D;37392;50.964;6.952;2024-01-06T04:32:50;6.74;7.91
51305;HTU21D;37392;50.964;6.952;2024-01-06T04:35:16;6.74;7.92
51305;HTU21D;37392;50.964;6.952;2024-01-06T04:37:41;6.79;7.98
51305;HTU21D;37392;50.964;6.952;2024-01-06T04:40:07;6.80;8.00
51305;HTU21D;37392;50.964;6.952;2024-01-06T04:42:33;6.83;8.08
51305;HTU21D;37392;50.964;6.952;2024-01-06T04:44:59;6.86;8.11
51305;HTU21D;37392;50.964;6.952;2024-01-06T04:47:24;6.90;8.04
51305;HTU21D;37392;50.964;6.952;2024-01-06T04:49:50;6.91;7.96
51305;HTU21D;37392;50.964;6.952;2024-01-06T04:52:16;6.95;7.97
51305;HTU21D;37392;50.964;6.952;2024-01-06T04:54:41;6.91;7.98
51305;HTU21D;37392;50.964;6.952;2024-01-06T04:57:06;6.96;8.00
51305;HTU21D;37392;50.964;6.952;2024-01-06T04:59:32;6.98;7.95
51305;HTU21D;37392;50.964;6.952;2024-01-06T05:01:58;7.00;7.90
51305;HTU21D;37392;50.964;6.952;2024-01-06T05:04:24;7.01;7.72
51305;HTU21D;37392;50.964;6.952;2024-01-06T05:06:51;6.99;7.69
51305;HTU21D;37392;50.964;6.952;2024-01-06T05:09:16;7.00;7.62
51305;HTU21D;37392;50.964;6.952;2024-01-06T05:11:45;6.96;7.68
51305;HTU21D;37392;50.964;6.952;2024-01-06T05:14:11;6.97;7.72
51305;HTU21D;37392;50.964;6.952;2024-01-06T05:16:37;6.90;7.19
51305;HTU21D;37392;50.964;6.952;2024-01-06T05:19:02;6.87;6.89
51305;HTU21D;37392;50.964;6.952;2024-01-06T05:21:29;6.85;6.81
51305;HTU21D;37392;50.964;6.952;2024-01-06T05:23:54;6.83;6.82
51305;HTU21D;37392;50.964;6.952;2024-01-06T05:26:20;6.74;6.12
51305;HTU21D;37392;50.964;6.952;2024-01-06T05:28:46;6.60;5.57
51305;HTU21D;37392;50.964;6.952;2024-01-06T05:31:11;6.48;5.20
51305;HTU21D;37392;50.964;6.952;2024-01-06T05:33:37;6.35;4.60
51305;HTU21D;37392;50.964;6.952;2024-01-06T05:36:02;6.34;5.20
51305;HTU21D;37392;50.964;6.952;2024-01-06T05:38:28;6.23;4.55
51305;HTU21D;37392;50.964;6.952;2024-01-06T05:40:54;6.16;4.66
51305;HTU21D;37392;50.964;6.952;2024-01-06T05:43:19;6.10;4.75
51305;HTU21D;37392;50.964;6.952;2024-01-06T05:45:45;6.02;4.42
51305;HTU21D;37392;50.964;6.952;2024-01-06T05:48:11;6.02;4.69
51305;HTU21D;37392;50.964;6.952;2024-01-06T05:50:40;5.97;5.09
51305;HTU21D;37392;50.964;6.952;2024-01-06T05:53:06;5.97;5.78
51305;HTU21D;37392;50.964;6.952;2024-01-06T05:55:32;5.98;5.84
51305;HTU21D;37392;50.964;6.952;2024-01-06T05:57:57;5.97;5.76
51305;HTU21D;37392;50.964;6.952;2024-01-06T06:00:23;5.94;5.80
51305;HTU21D;37392;50.964;6.952;2024-01-06T06:02:48;5.93;5.47
51305;HTU21D;37392;50.964;6.952;2024-01-06T06:05:14;5.83;5.22
51305;HTU21D;37392;50.964;6.952;2024-01-06T06:07:40;5.77;5.21
51305;HTU21D;37392;50.964;6.952;2024-01-06T06:10:07;5.76;5.73
51305;HTU21D;37392;50.964;6.952;2024-01-06T06:12:33;5.68;5.44
51305;HTU21D;37392;50.964;6.952;2024-01-06T06:14:59;5.63;5.52
51305;HTU21D;37392;50.964;6.952;2024-01-06T06:17:25;5.63;5.69
51305;HTU21D;37392;50.964;6.952;2024-01-06T06:19:51;5.60;5.90
51305;HTU21D;37392;50.964;6.952;2024-01-06T06:22:16;5.55;6.01
51305;HTU21D;37392;50.964;6.952;2024-01-06T06:24:42;5.54;5.81
51305;HTU21D;37392;50.964;6.952;2024-01-06T06:27:08;5.53;6.13
51305;HTU21D;37392;50.964;6.952;2024-01-06T06:29:33;5.49;6.06
51305;HTU21D;37392;50.964;6.952;2024-01-06T06:31:59;5.47;6.05
51305;HTU21D;37392;50.964;6.952;2024-01-06T06:34:25;5.52;6.24
51305;HTU21D;37392;50.964;6.952;2024-01-06T06:36:50;5.51;6.35
51305;HTU21D;37392;50.964;6.952;2024-01-06T06:39:16;5.47;6.18
51305;HTU21D;37392;50.964;6.952;2024-01-06T06:41:41;5.48;6.18
51305;HTU21D;37392;50.964;6.952;2024-01-06T06:44:07;5.46;6.14
51305;HTU21D;37392;50.964;6.952;2024-01-06T06:46:32;5.49;6.37
51305;HTU21D;37392;50.964;6.952;2024-01-06T06:48:58;5.48;6.39
51305;HTU21D;37392;50.964;6.952;2024-01-06T06:51:23;5.48;6.37
51305;HTU21D;37392;50.964;6.952;2024-01-06T06:53:52;5.48;6.63
51305;HTU21D;37392;50.964;6.952;2024-01-06T06:56:17;5.52;6.77
51305;HTU21D;37392;50.964;6.952;2024-01-06T06:58:43;5.54;6.96
51305;HTU21D;37392;50.964;6.952;2024-01-06T07:01:08;5.57;7.11
51305;HTU21D;37392;50.964;6.952;2024-01-06T07:03:34;5.57;7.16
51305;HTU21D;37392;50.964;6.952;2024-01-06T07:05:59;5.57;7.08
51305;HTU21D;37392;50.964;6.952;2024-01-06T07:08:25;5.63;7.07
51305;HTU21D;37392;50.964;6.952;2024-01-06T07:10:50;5.59;6.86
51305;HTU21D;37392;50.964;6.952;2024-01-06T07:13:16;5.59;6.99
51305;HTU21D;37392;50.964;6.952;2024-01-06T07:15:41;5.61;6.98
51305;HTU21D;37392;50.964;6.952;2024-01-06T07:18:07;5.59;6.70
51305;HTU21D;37392;50.964;6.952;2024-01-06T07:20:32;5.60;6.72
51305;HTU21D;37392;50.964;6.952;2024-01-06T07:22:58;5.60;6.90
51305;HTU21D;37392;50.964;6.952;2024-01-06T07:25:23;5.61;6.92
51305;HTU21D;37392;50.964;6.952;2024-01-06T07:27:49;5.60;6.85
51305;HTU21D;37392;50.964;6.952;2024-01-06T07:30:14;5.64;6.57
51305;HTU21D;37392;50.964;6.952;2024-01-06T07:32:40;5.63;6.30
51305;HTU21D;37392;50.964;6.952;2024-01-06T07:35:06;5.60;6.31
51305;HTU21D;37392;50.964;6.952;2024-01-06T07:37:31;5.61;6.46
51305;HTU21D;37392;50.964;6.952;2024-01-06T07:39:57;5.64;6.49
51305;HTU21D;37392;50.964;6.952;2024-01-06T07:42:22;5.62;6.44
51305;HTU21D;37392;50.964;6.952;2024-01-06T07:44:48;5.59;6.50
51305;HTU21D;37392;50.964;6.952;2024-01-06T07:47:13;5.59;6.28
51305;HTU21D;37392;50.964;6.952;2024-01-06T07:49:39;5.53;5.66
51305;HTU21D;37392;50.964;6.952;2024-01-06T07:52:05;5.55;6.04
51305;HTU21D;37392;50.964;6.952;2024-01-06T07:54:31;5.52;6.10
51305;HTU21D;37392;50.964;6.952;2024-01-06T07:56:56;5.54;6.11
51305;HTU21D;37392;50.964;6.952;2024-01-06T07:59:22;5.54;5.92
51305;HTU21D;37392;50.964;6.952;2024-01-06T08:01:47;5.54;5.72
51305;HTU21D;37392;50.964;6.952;2024-01-06T08:04:13;5.59;6.07
51305;HTU21D;37392;50.964;6.952;2024-01-06T08:06:39;5.63;6.23
51305;HTU21D;37392;50.964;6.952;2024-01-06T08:09:04;5.66;6.08
51305;HTU21D;37392;50.964;6.952;2024-01-06T08:11:31;5.67;5.69
51305;HTU21D;37392;50.964;6.952;2024-01-06T08:13:56;5.67;5.57
51305;HTU21D;37392;50.964;6.952;2024-01-06T08:16:22;5.71;5.63
51305;HTU21D;37392;50.964;6.952;2024-01-06T08:18:47;5.68;5.51
51305;HTU21D;37392;50.964;6.952;2024-01-06T08:21:13;5.70;4.90
51305;HTU21D;37392;50.964;6.952;2024-01-06T08:23:38;5.70;4.86
51305;HTU21D;37392;50.964;6.952;2024-01-06T08:26:05;5.69;4.96
51305;HTU21D;37392;50.964;6.952;2024-01-06T08:28:31;5.72;5.09
51305;HTU21D;37392;50.964;6.952;2024-01-06T08:30:57;5.74;4.91
51305;HTU21D;37392;50.964;6.952;2024-01-06T08:33:22;5.75;4.84
51305;HTU21D;37392;50.964;6.952;2024-01-06T08:35:48;5.78;4.89
51305;HTU21D;37392;50.964;6.952;2024-01-06T08:38:14;5.80;4.17
51305;HTU21D;37392;50.964;6.952;2024-01-06T08:40:40;5.83;4.36
51305;HTU21D;37392;50.964;6.952;2024-01-06T08:43:05;5.85;4.02
51305;HTU21D;37392;50.964;6.952;2024-01-06T08:45:31;5.85;3.83
51305;HTU21D;37392;50.964;6.952;2024-01-06T08:47:57;5.87;3.37
51305;HTU21D;37392;50.964;6.952;2024-01-06T08:50:22;5.90;3.76
51305;HTU21D;37392;50.964;6.952;2024-01-06T08:52:48;5.92;3.83
51305;HTU21D;37392;50.964;6.952;2024-01-06T08:55:13;5.93;3.32
51305;HTU21D;37392;50.964;6.952;2024-01-06T08:57:39;5.97;3.36
51305;HTU21D;37392;50.964;6.952;2024-01-06T09:00:05;5.95;3.12
51305;HTU21D;37392;50.964;6.952;2024-01-06T09:02:31;5.98;3.10
51305;HTU21D;37392;50.964;6.952;2024-01-06T09:04:56;5.98;2.39
51305;HTU21D;37392;50.964;6.952;2024-01-06T09:07:22;6.02;3.12
51305;HTU21D;37392;50.964;6.952;2024-01-06T09:09:47;5.97;1.48
51305;HTU21D;37392;50.964;6.952;2024-01-06T09:12:13;5.94;1.19
51305;HTU21D;37392;50.964;6.952;2024-01-06T09:14:39;5.97;2.17
51305;HTU21D;37392;50.964;6.952;2024-01-06T09:17:04;6.00;1.83
51305;HTU21D;37392;50.964;6.952;2024-01-06T09:19:30;5.99;1.24
51305;HTU21D;37392;50.964;6.952;2024-01-06T09:21:56;6.02;1.69
51305;HTU21D;37392;50.964;6.952;2024-01-06T09:24:22;6.00;1.29
51305;HTU21D;37392;50.964;6.952;2024-01-06T09:26:48;6.04;1.74
51305;HTU21D;37392;50.964;6.952;2024-01-06T09:29:15;6.02;1.13
51305;HTU21D;37392;50.964;6.952;2024-01-06T09:31:42;5.98;-0.19
51305;HTU21D;37392;50.964;6.952;2024-01-06T09:34:11;6.00;0.66
51305;HTU21D;37392;50.964;6.952;2024-01-06T09:36:38;6.04;0.81
51305;HTU21D;37392;50.964;6.952;2024-01-06T09:39:04;6.06;0.59
51305;HTU21D;37392;50.964;6.952;2024-01-06T09:41:30;6.11;1.01
51305;HTU21D;37392;50.964;6.952;2024-01-06T09:43:56;6.11;0.44
51305;HTU21D;37392;50.964;6.952;2024-01-06T09:46:27;6.15;1.07
51305;HTU21D;37392;50.964;6.952;2024-01-06T09:48:55;6.22;1.34
51305;HTU21D;37392;50.964;6.952;2024-01-06T09:51:22;6.21;0.55
51305;HTU21D;37392;50.964;6.952;2024-01-06T09:53:52;6.24;0.63
51305;HTU21D;37392;50.964;6.952;2024-01-06T09:56:24;6.30;0.81
51305;HTU21D;37392;50.964;6.952;2024-01-06T09:58:51;6.27;-1.00
51305;HTU21D;37392;50.964;6.952;2024-01-06T10:01:20;6.22;-1.09
51305;HTU21D;37392;50.964;6.952;2024-01-06T10:03:46;6.23;-0.31
51305;HTU21D;37392;50.964;6.952;2024-01-06T10:06:16;6.27;-0.42
51305;HTU21D;37392;50.964;6.952;2024-01-06T10:08:43;6.37;0.10
51305;HTU21D;37392;50.964;6.952;2024-01-06T10:11:09;6.39;-0.31
51305;HTU21D;37392;50.964;6.952;2024-01-06T10:13:36;6.37;-0.90
51305;HTU21D;37392;50.964;6.952;2024-01-06T10:16:05;6.40;-1.10
51305;HTU21D;37392;50.964;6.952;2024-01-06T10:18:31;6.45;-0.19
51305;HTU21D;37392;50.964;6.952;2024-01-06T10:20:58;6.46;-0.95
51305;HTU21D;37392;50.964;6.952;2024-01-06T10:23:23;6.43;-0.99
51305;HTU21D;37392;50.964;6.952;2024-01-06T10:25:54;6.43;-0.91
51305;HTU21D;37392;50.964;6.952;2024-01-06T10:28:23;6.49;-0.73
51305;HTU21D;37392;50.964;6.952;2024-01-06T10:30:52;6.46;-1.03
51305;HTU21D;37392;50.964;6.952;2024-01-06T10:33:20;6.48;-1.29
51305;HTU21D;37392;50.964;6.952;2024-01-06T10:35:47;6.48;-1.54
51305;HTU21D;37392;50.964;6.952;2024-01-06T10:38:13;6.51;-1.16
51305;HTU21D;37392;50.964;6.952;2024-01-06T10:40:59;6.54;-1.45
51305;HTU21D;37392;50.964;6.952;2024-01-06T10:43:26;6.57;-1.52
51305;HTU21D;37392;50.964;6.952;2024-01-06T10:45:55;6.54;-1.99
51305;HTU21D;37392;50.964;6.952;2024-01-06T10:48:25;6.53;-1.89
51305;HTU21D;37392;50.964;6.952;2024-01-06T10:50:51;6.61;-1.58
51305;HTU21D;37392;50.964;6.952;2024-01-06T10:53:20;6.58;-3.73
51305;HTU21D;37392;50.964;6.952;2024-01-06T10:55:46;6.64;-2.64
51305;HTU21D;37392;50.964;6.952;2024-01-06T10:58:16;6.65;-3.96
51305;HTU21D;37392;50.964;6.952;2024-01-06T11:00:42;6.58;-5.50
51305;HTU21D;37392;50.964;6.952;2024-01-06T11:03:09;6.66;-3.92
51305;HTU21D;37392;50.964;6.952;2024-01-06T11:05:36;6.75;-2.88
51305;HTU21D;37392;50.964;6.952;2024-01-06T11:08:03;6.91;-3.54
51305;HTU21D;37392;50.964;6.952;2024-01-06T11:10:30;7.05;-3.87
51305;HTU21D;37392;50.964;6.952;2024-01-06T11:13:11;7.10;-5.76
51305;HTU21D;37392;50.964;6.952;2024-01-06T11:15:41;6.98;117.32
51305;HTU21D;37392;50.964;6.952;2024-01-06T11:18:08;7.01;118.17
51305;HTU21D;37392;50.964;6.952;2024-01-06T11:20:34;7.10;-5.66
51305;HTU21D;37392;50.964;6.952;2024-01-06T11:23:32;7.27;-5.79
51305;HTU21D;37392;50.964;6.952;2024-01-06T11:25:57;7.27;116.66
51305;HTU21D;37392;50.964;6.952;2024-01-06T11:28:24;7.27;116.19
51305;HTU21D;37392;50.964;6.952;2024-01-06T11:31:05;7.18;116.10
51305;HTU21D;37392;50.964;6.952;2024-01-06T11:33:43;7.10;115.54
51305;HTU21D;37392;50.964;6.952;2024-01-06T11:36:09;7.08;117.37
51305;HTU21D;37392;50.964;6.952;2024-01-06T11:38:39;7.09;118.57
51305;HTU21D;37392;50.964;6.952;2024-01-06T11:41:08;7.01;115.64
51305;HTU21D;37392;50.964;6.952;2024-01-06T11:43:38;7.05;116.84
51305;HTU21D;37392;50.964;6.952;2024-01-06T11:46:10;7.02;117.80
51305;HTU21D;37392;50.964;6.952;2024-01-06T11:48:37;6.91;116.83
51305;HTU21D;37392;50.964;6.952;2024-01-06T11:51:03;6.85;117.63
51305;HTU21D;37392;50.964;6.952;2024-01-06T11:53:28;6.89;118.87
51305;HTU21D;37392;50.964;6.952;2024-01-06T11:56:07;6.68;117.39
51305;HTU21D;37392;50.964;6.952;2024-01-06T11:58:48;6.35;116.84
51305;HTU21D;37392;50.964;6.952;2024-01-06T12:01:13;6.10;118.37
51305;HTU21D;37392;50.964;6.952;2024-01-06T12:03:39;6.00;-4.57
51305;HTU21D;37392;50.964;6.952;2024-01-06T12:06:05;5.94;-3.50
51305;HTU21D;37392;50.964;6.952;2024-01-06T12:08:31;5.84;-4.22
51305;HTU21D;37392;50.964;6.952;2024-01-06T12:11:06;5.71;-3.94
51305;HTU21D;37392;50.964;6.952;2024-01-06T12:13:32;5.55;-3.60
51305;HTU21D;37392;50.964;6.952;2024-01-06T12:15:58;5.43;-3.11
51305;HTU21D;37392;50.964;6.952;2024-01-06T12:18:24;5.40;-1.93
51305;HTU21D;37392;50.964;6.952;2024-01-06T12:20:50;5.40;-1.49
51305;HTU21D;37392;50.964;6.952;2024-01-06T12:23:27;5.39;-1.48
51305;HTU21D;37392;50.964;6.952;2024-01-06T12:25:54;5.40;-0.71
51305;HTU21D;37392;50.964;6.952;2024-01-06T12:28:20;5.40;-0.29
51305;HTU21D;37392;50.964;6.952;2024-01-06T12:30:46;5.36;-0.80
51305;HTU21D;37392;50.964;6.952;2024-01-06T12:33:11;5.33;-0.45
51305;HTU21D;37392;50.964;6.952;2024-01-06T12:35:37;5.28;-0.64
51305;HTU21D;37392;50.964;6.952;2024-01-06T12:38:03;5.18;-0.32
51305;HTU21D;37392;50.964;6.952;2024-01-06T12:40:32;5.12;0.74
51305;HTU21D;37392;50.964;6.952;2024-01-06T12:42:58;5.09;0.91
51305;HTU21D;37392;50.964;6.952;2024-01-06T12:45:23;5.08;1.84
51305;HTU21D;37392;50.964;6.952;2024-01-06T12:47:49;5.16;2.35
51305;HTU21D;37392;50.964;6.952;2024-01-06T12:50:27;5.21;2.86
51305;HTU21D;37392;50.964;6.952;2024-01-06T12:53:03;5.13;2.60
51305;HTU21D;37392;50.964;6.952;2024-01-06T12:55:29;5.19;2.74
51305;HTU21D;37392;50.964;6.952;2024-01-06T12:57:54;5.18;2.35
51305;HTU21D;37392;50.964;6.952;2024-01-06T13:00:20;5.19;2.89
51305;HTU21D;37392;50.964;6.952;2024-01-06T13:02:46;5.11;2.21
51305;HTU21D;37392;50.964;6.952;2024-01-06T13:05:12;5.10;2.55
51305;HTU21D;37392;50.964;6.952;2024-01-06T13:07:38;5.10;3.14
51305;HTU21D;37392;50.964;6.952;2024-01-06T13:10:05;5.09;2.41
51305;HTU21D;37392;50.964;6.952;2024-01-06T13:12:31;5.08;2.23
51305;HTU21D;37392;50.964;6.952;2024-01-06T13:14:56;5.05;1.85
51305;HTU21D;37392;50.964;6.952;2024-01-06T13:17:22;4.93;1.14
51305;HTU21D;37392;50.964;6.952;2024-01-06T13:19:48;4.84;1.39
51305;HTU21D;37392;50.964;6.952;2024-01-06T13:22:13;4.81;2.03
51305;HTU21D;37392;50.964;6.952;2024-01-06T13:24:40;4.71;1.33
51305;HTU21D;37392;50.964;6.952;2024-01-06T13:27:06;4.67;1.61
51305;HTU21D;37392;50.964;6.952;2024-01-06T13:29:31;4.65;2.13
51305;HTU21D;37392;50.964;6.952;2024-01-06T13:31:57;4.61;1.24
51305;HTU21D;37392;50.964;6.952;2024-01-06T13:34:24;4.61;1.71
51305;HTU21D;37392;50.964;6.952;2024-01-06T13:36:50;4.61;1.14
51305;HTU21D;37392;50.964;6.952;2024-01-06T13:39:16;4.62;1.26
51305;HTU21D;37392;50.964;6.952;2024-01-06T13:41:50;4.60;0.83
51305;HTU21D;37392;50.964;6.952;2024-01-06T13:44:16;4.59;1.40
51305;HTU21D;37392;50.964;6.952;2024-01-06T13:46:42;4.57;0.42
51305;HTU21D;37392;50.964;6.952;2024-01-06T13:49:11;4.51;0.65
51305;HTU21D;37392;50.964;6.952;2024-01-06T13:51:38;4.49;1.13
51305;HTU21D;37392;50.964;6.952;2024-01-06T13:54:05;4.50;1.23
51305;HTU21D;37392;50.964;6.952;2024-01-06T13:56:30;4.53;1.29
51305;HTU21D;37392;50.964;6.952;2024-01-06T13:58:56;4.52;0.54
51305;HTU21D;37392;50.964;6.952;2024-01-06T14:01:22;4.57;0.92
51305;HTU21D;37392;50.964;6.952;2024-01-06T14:03:49;4.61;0.78
51305;HTU21D;37392;50.964;6.952;2024-01-06T14:06:15;4.61;0.08
51305;HTU21D;37392;50.964;6.952;2024-01-06T14:08:43;4.61;-0.00
51305;HTU21D;37392;50.964;6.952;2024-01-06T14:11:15;4.66;0.76
51305;HTU21D;37392;50.964;6.952;2024-01-06T14:13:41;4.71;1.11
51305;HTU21D;37392;50.964;6.952;2024-01-06T14:16:06;4.74;1.48
51305;HTU21D;37392;50.964;6.952;2024-01-06T14:18:33;4.71;0.48
51305;HTU21D;37392;50.964;6.952;2024-01-06T14:20:59;4.69;0.12
51305;HTU21D;37392;50.964;6.952;2024-01-06T14:23:24;4.64;-0.06
51305;HTU21D;37392;50.964;6.952;2024-01-06T14:25:50;4.66;0.13
51305;HTU21D;37392;50.964;6.952;2024-01-06T14:28:15;4.68;0.66
51305;HTU21D;37392;50.964;6.952;2024-01-06T14:30:41;4.65;0.09
51305;HTU21D;37392;50.964;6.952;2024-01-06T14:33:07;4.66;-0.04
51305;HTU21D;37392;50.964;6.952;2024-01-06T14:35:32;4.63;-0.32
51305;HTU21D;37392;50.964;6.952;2024-01-06T14:37:58;4.64;-0.09
51305;HTU21D;37392;50.964;6.952;2024-01-06T14:40:23;4.67;-0.23
51305;HTU21D;37392;50.964;6.952;2024-01-06T14:42:49;4.65;0.05
51305;HTU21D;37392;50.964;6.952;2024-01-06T14:45:15;4.69;0.85
51305;HTU21D;37392;50.964;6.952;2024-01-06T14:47:41;4.59;-0.40
51305;HTU21D;37392;50.964;6.952;2024-01-06T14:50:07;4.54;-0.72
51305;HTU21D;37392;50.964;6.952;2024-01-06T14:52:33;4.58;0.16
51305;HTU21D;37392;50.964;6.952;2024-01-06T14:54:58;4.61;0.56
51305;HTU21D;37392;50.964;6.952;2024-01-06T14:57:24;4.61;0.84
51305;HTU21D;37392;50.964;6.952;2024-01-06T14:59:49;4.62;0.87
51305;HTU21D;37392;50.964;6.952;2024-01-06T15:02:15;4.63;1.06
51305;HTU21D;37392;50.964;6.952;2024-01-06T15:04:41;4.66;1.25
51305;HTU21D;37392;50.964;6.952;2024-01-06T15:07:07;4.61;0.96
51305;HTU21D;37392;50.964;6.952;2024-01-06T15:09:38;4.56;0.78
51305;HTU21D;37392;50.964;6.952;2024-01-06T15:12:05;4.50;0.77
51305;HTU21D;37392;50.964;6.952;2024-01-06T15:14:31;4.41;1.01
51305;HTU21D;37392;50.964;6.952;2024-01-06T15:16:57;4.35;1.11
51305;HTU21D;37392;50.964;6.952;2024-01-06T15:19:22;4.36;1.57
51305;HTU21D;37392;50.964;6.952;2024-01-06T15:21:55;4.37;2.48
51305;HTU21D;37392;50.964;6.952;2024-01-06T15:24:20;4.37;1.75
51305;HTU21D;37392;50.964;6.952;2024-01-06T15:26:49;4.33;2.21
51305;HTU21D;37392;50.964;6.952;2024-01-06T15:29:17;4.34;2.42
51305;HTU21D;37392;50.964;6.952;2024-01-06T15:31:43;4.32;2.35
51305;HTU21D;37392;50.964;6.952;2024-01-06T15:34:08;4.27;2.42
51305;HTU21D;37392;50.964;6.952;2024-01-06T15:36:35;4.17;2.00
51305;HTU21D;37392;50.964;6.952;2024-01-06T15:39:00;4.09;1.96